Time;durP1;ratioP1;P1;durP2;ratioP2;P2;SDS_P1;SDS_P2;PMS_P1;PMS_P2;Temp;Humidity;BMP_temperature;BMP_pressure;BME280_temperature;BME280_humidity;BME280_pressure;Samples;Min_cycle;Max_cycle;Signal;HPM_P1;HPM_P2
2022/05/04 00:01:56;;;;;;;5.28;1.05;;;19.80;99.90;;;;;;5022973;28;20018;-67
2022/05/04 00:04:24;;;;;;;6.05;0.80;;;19.30;99.90;;;;;;5023349;28;20076;-67
2022/05/04 00:06:51;;;;;;;4.10;0.65;;;19.60;99.90;;;;;;5017152;28;20029;-67
2022/05/04 00:09:19;;;;;;;2.78;1.08;;;19.80;99.90;;;;;;5027528;28;20080;-68
2022/05/04 00:11:46;;;;;;;4.32;1.10;;;20.10;99.90;;;;;;5027315;28;20029;-68
2022/05/04 00:14:13;;;;;;;4.07;0.70;;;20.00;99.90;;;;;;5022320;28;20021;-68
2022/05/04 00:16:41;;;;;;;3.92;0.82;;;20.00;99.90;;;;;;5018602;28;20025;-68
2022/05/04 00:19:08;;;;;;;2.70;0.73;;;20.20;99.90;;;;;;5019000;28;20052;-67
2022/05/04 00:21:35;;;;;;;3.88;1.23;;;20.30;99.90;;;;;;5021282;28;20038;-67
2022/05/04 00:24:03;;;;;;;4.88;0.88;;;20.50;99.90;;;;;;5020504;28;20072;-67
2022/05/04 00:26:30;;;;;;;4.78;0.88;;;20.70;99.90;;;;;;5018305;28;20032;-67
2022/05/04 00:28:57;;;;;;;7.82;0.90;;;20.70;99.90;;;;;;5020808;28;20075;-67
2022/05/04 00:31:24;;;;;;;5.53;1.13;;;21.10;99.90;;;;;;5029219;28;20017;-67
2022/05/04 00:33:52;;;;;;;4.68;1.13;;;21.10;99.90;;;;;;5031611;28;20030;-67
2022/05/04 00:36:19;;;;;;;4.35;0.98;;;21.30;99.90;;;;;;5028051;28;20025;-67
2022/05/04 00:38:46;;;;;;;4.40;1.08;;;21.40;99.90;;;;;;5021178;28;20100;-67
2022/05/04 00:41:13;;;;;;;5.05;1.20;;;21.30;99.90;;;;;;5018605;28;20425;-68
2022/05/04 00:43:41;;;;;;;1.90;0.82;;;21.10;99.90;;;;;;5028106;28;20032;-67
2022/05/04 00:46:08;;;;;;;4.93;1.23;;;21.50;99.90;;;;;;5020886;28;20064;-68
2022/05/04 00:48:35;;;;;;;3.33;1.20;;;21.80;99.90;;;;;;5031964;28;20068;-68
2022/05/04 00:51:03;;;;;;;1.75;0.75;;;21.80;99.90;;;;;;5021549;28;20052;-67
2022/05/04 00:53:30;;;;;;;4.07;1.27;;;22.10;99.90;;;;;;5027060;28;20037;-67
2022/05/04 00:56:00;;;;;;;3.05;0.93;;;21.70;99.90;;;;;;5018375;28;20032;-68
2022/05/04 01:01:14;;;;;;;4.22;1.00;;;22.20;99.90;;;;;;5020989;28;20401;-68
2022/05/04 01:03:42;;;;;;;3.08;0.98;;;22.70;99.90;;;;;;5022687;28;20030;-67
2022/05/04 01:06:09;;;;;;;1.98;0.82;;;22.90;99.90;;;;;;5023300;28;20091;-68
2022/05/04 01:08:36;;;;;;;4.10;1.00;;;22.80;99.90;;;;;;5022658;28;20028;-68
2022/05/04 01:11:04;;;;;;;5.60;0.93;;;22.40;99.90;;;;;;5021821;28;20389;-68
2022/05/04 01:13:32;;;;;;;2.88;0.90;;;22.30;99.90;;;;;;5022517;28;20052;-68
2022/05/04 01:15:59;;;;;;;6.55;0.88;;;22.40;99.90;;;;;;5018430;28;20026;-68
2022/05/04 01:18:27;;;;;;;2.40;0.85;;;22.60;99.90;;;;;;5021894;28;20380;-68
2022/05/04 01:20:54;;;;;;;4.68;0.90;;;23.00;99.90;;;;;;5016614;28;20655;-68
2022/05/04 01:23:21;;;;;;;2.67;0.90;;;22.90;99.90;;;;;;5028865;28;20068;-68
2022/05/04 01:25:53;;;;;;;1.73;0.75;;;23.10;99.90;;;;;;5013229;28;20037;-68
2022/05/04 01:28:21;;;;;;;3.75;0.82;;;22.60;99.90;;;;;;5021787;28;20411;-67
2022/05/04 01:30:48;;;;;;;1.90;0.75;;;22.80;99.90;;;;;;5029369;28;20032;-68
2022/05/04 01:33:15;;;;;;;2.40;0.68;;;22.80;99.90;;;;;;5027582;28;20037;-68
2022/05/04 01:35:43;;;;;;;4.68;0.70;;;22.80;99.90;;;;;;5029311;28;20063;-68
2022/05/04 01:38:10;;;;;;;3.05;0.80;;;23.00;99.90;;;;;;5031941;28;20033;-68
2022/05/04 01:40:37;;;;;;;3.72;0.70;;;23.50;99.90;;;;;;5023759;28;20453;-68
2022/05/04 01:43:05;;;;;;;4.65;0.73;;;23.50;99.90;;;;;;5028586;28;20017;-68
2022/05/04 01:45:32;;;;;;;4.88;0.95;;;23.60;99.90;;;;;;5018104;28;20036;-68
2022/05/04 01:47:59;;;;;;;3.97;0.85;;;23.60;99.90;;;;;;5025981;28;20026;-68
2022/05/04 01:50:27;;;;;;;2.38;0.80;;;23.30;99.90;;;;;;5020141;28;20024;-68
2022/05/04 01:52:54;;;;;;;2.67;0.80;;;23.70;99.90;;;;;;5020848;28;20141;-68
2022/05/04 01:55:26;;;;;;;5.30;0.82;;;23.90;99.90;;;;;;5030341;28;20508;-68
2022/05/04 01:57:53;;;;;;;1.17;0.70;;;23.90;99.90;;;;;;5052384;28;20031;-68
2022/05/04 02:00:20;;;;;;;7.07;1.38;;;24.10;99.90;;;;;;5029398;28;20030;-68
2022/05/04 02:02:48;;;;;;;3.53;0.98;;;24.40;99.90;;;;;;5028499;28;20022;-68
2022/05/04 02:05:15;;;;;;;2.10;0.93;;;24.60;99.90;;;;;;5023295;28;20040;-68
2022/05/04 02:07:43;;;;;;;2.55;0.85;;;24.60;99.90;;;;;;5028149;28;20430;-68
2022/05/04 02:10:11;;;;;;;3.58;0.90;;;24.50;99.90;;;;;;5013515;28;20030;-68
2022/05/04 02:12:39;;;;;;;1.17;0.50;;;24.30;99.90;;;;;;5021171;28;20030;-68
2022/05/04 02:15:08;;;;;;;2.22;0.88;;;24.50;99.90;;;;;;5013969;28;20038;-68
2022/05/04 02:17:37;;;;;;;2.70;0.68;;;25.00;99.90;;;;;;5015058;28;20029;-68
2022/05/04 02:20:05;;;;;;;2.45;0.60;;;25.70;99.90;;;;;;5029920;28;20029;-67
2022/05/04 02:22:33;;;;;;;3.47;0.80;;;26.10;99.90;;;;;;5024895;28;20026;-67
2022/05/04 02:25:00;;;;;;;2.85;0.77;;;25.70;99.90;;;;;;5012599;28;20022;-67
2022/05/04 02:27:27;;;;;;;4.68;0.90;;;25.30;99.90;;;;;;5020411;28;20021;-68
2022/05/04 02:29:54;;;;;;;3.22;0.90;;;25.60;99.90;;;;;;5019607;28;20026;-67
2022/05/04 02:32:22;;;;;;;2.55;0.73;;;25.70;99.90;;;;;;5021198;28;20433;-67
2022/05/04 02:40:19;;;;;;;2.72;0.85;;;25.80;99.90;;;;;;5019353;28;20065;-67
2022/05/04 02:42:46;;;;;;;3.22;0.80;;;25.90;99.90;;;;;;5013393;28;20018;-68
2022/05/04 02:45:14;;;;;;;1.88;0.50;;;25.30;99.90;;;;;;5026644;28;20029;-67
2022/05/04 02:47:42;;;;;;;3.65;0.40;;;25.50;99.90;;;;;;5027491;28;20547;-67
2022/05/04 02:50:09;;;;;;;1.20;0.50;;;26.10;99.90;;;;;;5025553;28;20021;-67
2022/05/04 02:52:37;;;;;;;2.25;0.90;;;26.00;99.90;;;;;;5019929;28;20046;-67
2022/05/04 02:55:05;;;;;;;3.17;0.73;;;26.60;99.90;;;;;;5023854;28;20025;-67
2022/05/04 02:57:33;;;;;;;2.85;0.70;;;26.80;99.90;;;;;;5032569;28;20026;-67
2022/05/04 03:00:00;;;;;;;2.13;0.52;;;27.40;99.90;;;;;;5022023;28;20345;-68
2022/05/04 03:02:27;;;;;;;2.65;0.50;;;27.80;99.90;;;;;;5015745;28;20363;-68
2022/05/04 03:05:06;;;;;;;1.92;0.52;;;26.80;99.90;;;;;;5022876;28;20116;-67
2022/05/04 03:07:34;;;;;;;5.30;0.60;;;26.60;99.90;;;;;;5028206;28;20061;-67
2022/05/04 03:10:01;;;;;;;2.30;0.50;;;26.50;99.90;;;;;;5017122;28;20026;-67
2022/05/04 03:12:28;;;;;;;2.28;0.60;;;26.20;99.70;;;;;;5021678;28;20077;-67
2022/05/04 03:14:56;;;;;;;3.67;0.70;;;26.80;99.90;;;;;;5028993;28;20381;-67
2022/05/04 03:17:23;;;;;;;4.00;0.73;;;27.30;99.90;;;;;;5029283;28;20171;-67
2022/05/04 03:19:50;;;;;;;4.10;0.60;;;27.60;99.90;;;;;;5031258;28;20036;-67
2022/05/04 03:22:18;;;;;;;4.13;0.57;;;26.80;99.90;;;;;;5035609;28;20029;-67
2022/05/04 03:24:46;;;;;;;2.60;0.50;;;26.30;99.90;;;;;;5023101;28;20061;-67
2022/05/04 03:27:13;;;;;;;2.75;0.60;;;26.90;99.90;;;;;;5016159;28;20104;-67
2022/05/04 03:29:40;;;;;;;2.00;0.50;;;27.50;99.90;;;;;;5020851;28;20026;-67
2022/05/04 03:32:08;;;;;;;1.33;0.43;;;27.20;99.90;;;;;;5028484;28;20382;-67
2022/05/04 03:34:36;;;;;;;1.25;0.50;;;26.40;98.70;;;;;;5021566;28;20104;-67
2022/05/04 03:37:04;;;;;;;1.52;0.52;;;26.70;99.90;;;;;;5025526;28;20025;-67
2022/05/04 03:39:31;;;;;;;2.65;0.85;;;26.30;99.90;;;;;;5033205;28;20064;-67
2022/05/04 03:41:59;;;;;;;2.75;0.50;;;26.00;99.90;;;;;;5028283;28;20017;-67
2022/05/04 03:44:26;;;;;;;1.77;0.52;;;26.40;99.90;;;;;;5022989;28;20107;-67
2022/05/04 03:46:54;;;;;;;2.40;0.52;;;26.40;99.90;;;;;;5029638;28;20021;-67
2022/05/04 03:49:23;;;;;;;3.42;0.52;;;25.40;99.90;;;;;;5026564;28;20057;-67
2022/05/04 03:51:52;;;;;;;1.98;0.52;;;25.70;99.90;;;;;;5032907;28;20390;-67
2022/05/04 03:54:20;;;;;;;1.40;0.40;;;25.90;99.90;;;;;;5022169;28;20044;-67
2022/05/04 03:56:48;;;;;;;1.17;0.52;;;25.90;99.90;;;;;;5028863;28;20048;-67
2022/05/04 03:59:15;;;;;;;2.83;0.40;;;25.50;99.90;;;;;;5018943;28;20101;-67
2022/05/04 04:01:42;;;;;;;2.55;0.52;;;24.90;99.90;;;;;;5016482;28;20821;-67
2022/05/04 04:04:10;;;;;;;3.33;0.60;;;25.10;99.90;;;;;;5019547;28;20045;-67
2022/05/04 04:06:37;;;;;;;1.92;0.60;;;25.00;99.90;;;;;;5023842;28;20025;-67
2022/05/04 04:09:05;;;;;;;2.47;0.82;;;25.40;99.90;;;;;;5020941;28;20057;-67
2022/05/04 04:11:33;;;;;;;2.97;0.47;;;25.60;99.90;;;;;;5026014;28;20026;-68
2022/05/04 04:14:01;;;;;;;2.70;0.65;;;25.40;99.90;;;;;;5021340;28;20100;-67
2022/05/04 04:16:29;;;;;;;4.57;0.90;;;24.80;99.90;;;;;;5034236;28;20421;-67
2022/05/04 04:18:56;;;;;;;4.68;1.27;;;24.60;99.90;;;;;;5023800;28;20034;-67
2022/05/04 04:24:09;;;;;;;7.10;1.42;;;23.90;99.90;;;;;;5025444;28;20032;-68
2022/05/04 04:26:38;;;;;;;3.22;0.95;;;23.70;99.90;;;;;;5017446;28;20044;-67
2022/05/04 04:29:06;;;;;;;7.68;1.25;;;23.70;99.90;;;;;;5029392;28;20021;-67
2022/05/04 04:31:33;;;;;;;6.85;1.77;;;23.60;99.90;;;;;;5025425;28;20033;-67
2022/05/04 04:34:04;;;;;;;4.75;1.27;;;23.70;99.90;;;;;;5025870;28;20030;-67
2022/05/04 04:36:31;;;;;;;5.18;1.10;;;23.50;99.90;;;;;;5023424;28;20029;-67
2022/05/04 04:38:58;;;;;;;3.58;1.17;;;23.30;99.90;;;;;;5027460;28;20028;-67
2022/05/04 04:41:26;;;;;;;7.30;1.38;;;23.30;99.90;;;;;;5026506;28;20030;-67
2022/05/04 04:43:53;;;;;;;9.38;1.75;;;23.50;99.90;;;;;;5023405;28;20026;-67
2022/05/04 04:46:20;;;;;;;6.93;1.60;;;23.40;99.90;;;;;;5020281;28;20037;-67
2022/05/04 04:48:48;;;;;;;6.55;1.88;;;23.40;99.90;;;;;;5022522;28;20032;-67
2022/05/04 04:51:15;;;;;;;6.95;2.13;;;23.30;99.90;;;;;;5026355;28;20107;-67
2022/05/04 04:53:43;;;;;;;3.70;2.80;;;23.20;99.90;;;;;;5028232;28;20044;-67
2022/05/04 04:56:10;;;;;;;8.68;3.10;;;23.20;99.90;;;;;;5014854;28;20092;-67
2022/05/04 04:58:37;;;;;;;4.57;2.20;;;23.20;99.90;;;;;;5026004;28;20084;-67
2022/05/04 05:01:04;;;;;;;5.15;1.58;;;23.20;99.90;;;;;;5022801;28;20025;-68
2022/05/04 05:03:32;;;;;;;6.32;2.90;;;23.20;99.90;;;;;;5023027;28;20131;-67
2022/05/04 05:05:59;;;;;;;4.03;1.02;;;23.20;99.90;;;;;;5020797;28;20092;-68
2022/05/04 05:08:26;;;;;;;7.13;1.40;;;23.10;99.90;;;;;;5023359;28;20025;-68
2022/05/04 05:10:53;;;;;;;4.10;1.92;;;23.10;99.90;;;;;;5019046;28;20030;-67
2022/05/04 05:13:21;;;;;;;4.45;1.55;;;23.00;99.90;;;;;;5018635;28;20552;-68
2022/05/04 05:18:33;;;;;;;6.97;2.35;;;22.90;99.90;;;;;;5019262;28;20468;-68
2022/05/04 05:21:01;;;;;;;7.22;1.58;;;22.90;99.90;;;;;;5015575;28;20128;-68
2022/05/04 05:23:28;;;;;;;7.13;1.52;;;22.90;99.90;;;;;;5018424;28;20433;-68
2022/05/04 05:25:55;;;;;;;4.32;1.10;;;22.80;99.90;;;;;;5015378;28;20045;-67
2022/05/04 05:28:22;;;;;;;7.82;1.30;;;22.70;99.90;;;;;;5023539;28;20428;-68
2022/05/04 05:30:50;;;;;;;3.63;1.73;;;22.80;99.90;;;;;;5014279;28;20446;-67
2022/05/04 05:33:17;;;;;;;6.82;1.20;;;22.70;99.90;;;;;;5026645;28;20114;-67
2022/05/04 05:35:44;;;;;;;8.48;1.85;;;22.70;99.90;;;;;;5025304;28;20022;-67
2022/05/04 05:38:12;;;;;;;6.65;1.55;;;22.70;99.90;;;;;;5031778;28;20056;-69
2022/05/04 05:40:39;;;;;;;7.40;1.73;;;22.60;99.90;;;;;;5036457;28;20028;-69
2022/05/04 05:43:06;;;;;;;4.43;1.20;;;22.60;99.90;;;;;;5019675;28;20026;-68
2022/05/04 05:45:34;;;;;;;7.25;1.35;;;22.50;99.90;;;;;;5013801;28;20068;-69
2022/05/04 05:48:01;;;;;;;7.07;0.93;;;22.50;99.90;;;;;;5014117;28;20482;-69
2022/05/04 05:50:29;;;;;;;5.03;1.20;;;22.60;99.90;;;;;;5031694;28;20025;-69
2022/05/04 05:52:56;;;;;;;7.55;1.20;;;22.50;99.90;;;;;;5022357;28;20077;-69
2022/05/04 05:55:23;;;;;;;5.63;1.05;;;22.50;99.90;;;;;;5029414;28;20464;-69
2022/05/04 05:57:51;;;;;;;5.68;1.08;;;22.50;99.90;;;;;;5027128;28;20026;-69
2022/05/04 06:00:19;;;;;;;8.48;2.20;;;22.40;99.90;;;;;;5020319;28;20033;-69
2022/05/04 06:02:46;;;;;;;4.10;1.08;;;22.40;99.90;;;;;;5023832;28;20034;-69
2022/05/04 06:05:14;;;;;;;4.60;1.23;;;22.30;99.90;;;;;;5021086;28;20157;-69
2022/05/04 06:07:42;;;;;;;9.30;1.63;;;22.30;99.90;;;;;;5014877;28;20040;-69
2022/05/04 06:10:10;;;;;;;3.95;1.23;;;22.20;99.90;;;;;;5020999;28;20034;-69
2022/05/04 06:12:38;;;;;;;3.35;0.95;;;22.20;99.90;;;;;;5021427;28;20402;-69
2022/05/04 06:15:08;;;;;;;6.68;1.73;;;22.20;99.90;;;;;;5015455;28;20100;-69
2022/05/04 06:17:36;;;;;;;9.40;1.55;;;22.10;99.90;;;;;;5030719;28;20025;-69
2022/05/04 06:20:05;;;;;;;11.80;1.85;;;22.10;99.90;;;;;;5021171;28;20034;-69
2022/05/04 06:22:32;;;;;;;7.25;1.13;;;22.10;99.90;;;;;;5020823;28;20474;-69
2022/05/04 06:24:59;;;;;;;5.15;1.23;;;22.00;99.90;;;;;;5014908;28;20486;-69
2022/05/04 06:27:29;;;;;;;4.38;1.00;;;22.10;99.90;;;;;;5012839;28;20100;-69
2022/05/04 06:35:26;;;;;;;5.03;1.10;;;22.00;99.90;;;;;;5025442;28;20098;-69
2022/05/04 06:37:54;;;;;;;2.78;0.95;;;21.90;99.90;;;;;;5032483;28;20029;-69
2022/05/04 06:40:21;;;;;;;4.03;1.10;;;21.90;99.90;;;;;;5028269;28;20064;-69
2022/05/04 06:42:49;;;;;;;8.02;1.00;;;21.80;99.90;;;;;;5024304;28;20026;-68
2022/05/04 06:45:16;;;;;;;3.08;0.75;;;21.80;99.90;;;;;;5031789;28;20029;-68
2022/05/04 06:47:43;;;;;;;6.60;1.40;;;21.70;99.90;;;;;;5023533;28;20110;-68
2022/05/04 06:50:11;;;;;;;6.15;1.33;;;21.70;99.90;;;;;;5024183;28;20042;-68
2022/05/04 06:52:38;;;;;;;6.57;1.20;;;21.60;99.90;;;;;;5026980;28;20069;-68
2022/05/04 06:55:07;;;;;;;6.53;1.10;;;21.60;99.90;;;;;;5025286;28;20490;-67
2022/05/04 06:57:35;;;;;;;4.35;0.90;;;21.50;99.90;;;;;;5026469;28;20078;-68
2022/05/04 07:00:04;;;;;;;2.92;0.80;;;21.50;99.90;;;;;;5026422;28;20025;-67
2022/05/04 07:02:35;;;;;;;4.97;0.90;;;21.50;99.90;;;;;;5026857;28;20029;-68
2022/05/04 07:05:04;;;;;;;3.75;0.80;;;21.40;99.90;;;;;;5023111;28;20024;-68
2022/05/04 07:07:31;;;;;;;5.38;0.90;;;21.40;99.90;;;;;;5029554;28;20028;-67
2022/05/04 07:09:59;;;;;;;2.35;0.82;;;21.30;99.90;;;;;;5029513;28;20021;-67
2022/05/04 07:12:26;;;;;;;9.13;1.80;;;21.30;99.90;;;;;;5035952;28;20083;-68
2022/05/04 07:14:56;;;;;;;3.38;1.30;;;21.20;99.90;;;;;;5019910;28;20021;-68
2022/05/04 07:17:27;;;;;;;4.03;1.15;;;21.20;99.90;;;;;;5028182;28;20125;-68
2022/05/04 07:19:54;;;;;;;6.45;1.08;;;21.10;99.90;;;;;;5028015;28;20032;-68
2022/05/04 07:22:23;;;;;;;4.65;1.30;;;21.10;99.90;;;;;;5027766;28;20030;-68
2022/05/04 07:24:51;;;;;;;5.32;0.90;;;21.10;99.90;;;;;;5028386;28;20018;-68
2022/05/04 07:27:18;;;;;;;5.30;1.42;;;21.00;99.90;;;;;;5021920;28;20061;-69
2022/05/04 07:29:46;;;;;;;2.72;1.10;;;21.00;99.90;;;;;;5015271;28;20101;-69
2022/05/04 07:32:14;;;;;;;3.30;1.35;;;20.90;99.90;;;;;;5019853;28;20041;-71
2022/05/04 07:34:41;;;;;;;6.95;1.48;;;20.90;99.90;;;;;;5021933;28;20026;-70
2022/05/04 07:37:09;;;;;;;4.40;1.17;;;20.90;99.90;;;;;;5028744;28;20104;-69
2022/05/04 07:42:26;;;;;;;5.03;1.48;;;20.80;99.90;;;;;;5015580;28;20041;-70
2022/05/04 07:45:02;;;;;;;5.07;1.27;;;20.80;99.90;;;;;;5016175;28;20030;-70
2022/05/04 07:47:32;;;;;;;6.45;2.33;;;20.80;99.90;;;;;;5024223;28;20021;-70
2022/05/04 07:50:00;;;;;;;13.55;2.42;;;20.70;99.90;;;;;;5035222;28;20021;-69
2022/05/04 07:52:28;;;;;;;5.10;1.60;;;20.70;99.90;;;;;;5034594;28;20183;-69
2022/05/04 07:54:55;;;;;;;6.18;1.88;;;20.70;99.90;;;;;;5030428;28;20088;-69
2022/05/04 07:57:23;;;;;;;6.10;1.73;;;20.70;99.90;;;;;;5030275;28;20041;-69
2022/05/04 08:05:24;;;;;;;10.15;2.00;;;20.80;99.90;;;;;;5015000;28;20080;-69
2022/05/04 08:07:52;;;;;;;7.70;2.40;;;20.80;99.90;;;;;;5029244;28;20052;-70
2022/05/04 08:10:19;;;;;;;8.88;1.95;;;20.80;99.90;;;;;;5014954;28;20132;-70
2022/05/04 08:12:47;;;;;;;6.28;2.25;;;20.70;99.90;;;;;;5027740;28;20382;-70
2022/05/04 08:15:14;;;;;;;5.78;2.17;;;20.70;99.90;;;;;;5034759;28;20492;-70
2022/05/04 08:17:42;;;;;;;6.13;1.77;;;20.70;99.90;;;;;;5025640;28;20026;-70
2022/05/04 08:20:09;;;;;;;11.23;2.80;;;20.60;99.90;;;;;;5014812;28;20034;-69
2022/05/04 08:22:37;;;;;;;6.60;2.25;;;20.60;99.90;;;;;;5022909;28;20049;-69
2022/05/04 08:25:04;;;;;;;7.13;2.17;;;20.60;99.90;;;;;;5029078;28;20029;-69
2022/05/04 08:27:32;;;;;;;7.10;1.90;;;20.60;99.90;;;;;;5022978;28;20033;-69
2022/05/04 08:30:00;;;;;;;6.13;1.42;;;20.50;99.90;;;;;;5034339;28;20029;-69
2022/05/04 08:32:32;;;;;;;6.13;1.73;;;20.50;99.90;;;;;;5021824;28;20036;-70
2022/05/04 08:34:59;;;;;;;5.63;1.88;;;20.50;99.90;;;;;;5017253;28;20108;-69
2022/05/04 08:37:27;;;;;;;4.45;1.95;;;20.50;99.90;;;;;;5014132;28;20049;-69
2022/05/04 08:39:56;;;;;;;6.22;2.80;;;20.50;99.90;;;;;;5014220;28;20029;-69
2022/05/04 08:42:23;;;;;;;9.85;2.20;;;20.40;99.90;;;;;;5014989;28;20081;-69
2022/05/04 08:44:57;;;;;;;10.55;2.88;;;20.40;99.90;;;;;;5014155;28;20026;-69
2022/05/04 08:47:28;;;;;;;7.20;2.70;;;20.40;99.90;;;;;;5017037;28;20040;-70
2022/05/04 08:49:55;;;;;;;6.68;2.83;;;20.40;99.90;;;;;;5014649;28;20318;-70
2022/05/04 08:52:22;;;;;;;8.25;2.33;;;20.40;99.90;;;;;;5014093;28;20118;-68
2022/05/04 08:54:54;;;;;;;9.15;2.08;;;20.40;99.90;;;;;;5018445;28;20469;-67
2022/05/04 08:57:22;;;;;;;4.60;2.10;;;20.40;99.90;;;;;;5032193;28;20026;-68
2022/05/04 08:59:49;;;;;;;5.68;2.40;;;20.40;99.90;;;;;;5024844;28;20029;-69
2022/05/04 09:02:17;;;;;;;12.63;2.20;;;20.40;99.90;;;;;;5022226;28;20030;-70
2022/05/04 09:04:44;;;;;;;8.18;2.65;;;20.40;99.90;;;;;;5017666;28;20397;-70
2022/05/04 09:07:25;;;;;;;6.97;2.15;;;20.40;99.90;;;;;;5019169;28;20029;-70
2022/05/04 09:09:53;;;;;;;5.13;2.00;;;20.30;99.90;;;;;;5019618;28;20530;-69
2022/05/04 09:12:21;;;;;;;6.07;2.08;;;20.30;99.90;;;;;;5014473;28;20580;-70
2022/05/04 09:14:49;;;;;;;5.25;1.75;;;20.30;99.90;;;;;;5030749;28;20104;-69
2022/05/04 09:17:17;;;;;;;5.30;2.25;;;20.30;99.90;;;;;;5033532;28;20022;-70
2022/05/04 09:22:40;;;;;;;4.88;1.58;;;20.40;99.90;;;;;;5013589;28;20461;-70
2022/05/04 09:25:18;;;;;;;5.88;1.75;;;20.30;99.90;;;;;;5014252;28;20409;-70
2022/05/04 09:27:49;;;;;;;8.95;3.28;;;20.40;99.90;;;;;;5029594;28;20037;-70
2022/05/04 09:30:17;;;;;;;6.95;2.58;;;20.30;99.90;;;;;;5031889;28;20061;-70
2022/05/04 09:32:44;;;;;;;6.90;3.38;;;20.40;99.90;;;;;;5032015;28;20045;-69
2022/05/04 09:35:15;;;;;;;5.70;3.05;;;20.30;99.90;;;;;;5031578;28;20033;-70
2022/05/04 09:46:10;;;;;;;5.80;2.58;;;20.30;99.90;;;;;;5013484;28;20032;-70
2022/05/04 09:48:37;;;;;;;3.45;2.33;;;20.30;99.90;;;;;;5013426;28;20030;-70
2022/05/04 09:51:10;;;;;;;7.28;3.03;;;20.30;99.90;;;;;;5021615;28;20029;-70
2022/05/04 09:53:38;;;;;;;5.63;3.50;;;20.20;99.90;;;;;;5033140;28;20029;-69
2022/05/04 09:56:07;;;;;;;5.53;3.15;;;20.20;99.90;;;;;;5021434;28;20030;-70
2022/05/04 09:58:35;;;;;;;9.68;2.50;;;20.20;99.90;;;;;;5015436;28;20030;-70
2022/05/04 10:01:04;;;;;;;10.65;2.78;;;20.10;99.90;;;;;;5015262;28;20026;-69
2022/05/04 10:03:32;;;;;;;5.63;1.88;;;20.10;99.90;;;;;;5017538;28;20026;-71
2022/05/04 10:06:02;;;;;;;5.43;2.75;;;20.20;99.90;;;;;;5025780;28;20056;-71
2022/05/04 10:08:29;;;;;;;6.68;2.25;;;20.20;99.90;;;;;;5023888;28;20057;-71
2022/05/04 10:10:57;;;;;;;4.63;2.05;;;20.20;99.90;;;;;;5024892;28;20033;-72
2022/05/04 10:13:25;;;;;;;5.32;2.47;;;20.20;99.90;;;;;;5032695;28;20026;-72
2022/05/04 10:15:55;;;;;;;5.05;1.75;;;20.20;99.90;;;;;;5017714;28;20058;-72
2022/05/04 10:18:29;;;;;;;7.57;3.05;;;20.20;99.90;;;;;;5012991;28;20429;-72
2022/05/04 10:21:18;;;;;;;8.88;3.03;;;20.10;99.90;;;;;;5019680;28;20025;-72
2022/05/04 10:23:49;;;;;;;6.82;2.38;;;20.20;99.90;;;;;;5032352;28;20401;-71
2022/05/04 10:26:17;;;;;;;6.88;2.70;;;20.20;99.90;;;;;;5032142;28;20025;-71
2022/05/04 10:31:33;;;;;;;5.07;2.75;;;20.20;99.90;;;;;;5030945;28;20500;-71
2022/05/04 10:34:03;;;;;;;4.80;2.53;;;20.10;99.90;;;;;;5026442;28;20026;-71
2022/05/04 10:36:31;;;;;;;6.95;3.17;;;20.10;99.90;;;;;;5029061;28;20116;-71
2022/05/04 10:39:04;;;;;;;5.55;2.75;;;20.10;99.90;;;;;;5029667;28;20035;-71
2022/05/04 10:41:41;;;;;;;5.70;3.10;;;20.10;99.90;;;;;;5029467;28;20366;-71
2022/05/04 10:44:12;;;;;;;6.60;2.65;;;20.10;99.90;;;;;;5012852;28;20026;-71
2022/05/04 10:46:49;;;;;;;5.15;2.53;;;20.10;99.90;;;;;;5036017;28;20060;-70
2022/05/04 10:49:17;;;;;;;6.63;2.08;;;20.10;99.90;;;;;;5032920;28;20021;-71
2022/05/04 10:51:50;;;;;;;5.22;2.00;;;20.10;99.90;;;;;;5016424;28;20073;-71
2022/05/04 10:54:22;;;;;;;6.60;3.07;;;20.10;99.90;;;;;;5011691;28;20026;-71
2022/05/04 10:56:51;;;;;;;6.20;2.80;;;20.10;99.90;;;;;;5026310;28;20029;-72
2022/05/04 10:59:35;;;;;;;5.20;1.90;;;20.00;99.90;;;;;;5021279;28;20033;-72
2022/05/04 11:02:05;;;;;;;3.78;1.55;;;20.10;99.90;;;;;;5025199;28;20056;-72
2022/05/04 11:04:33;;;;;;;6.78;1.80;;;20.00;99.90;;;;;;5030350;28;20084;-72
2022/05/04 11:07:08;;;;;;;3.30;1.30;;;20.10;99.90;;;;;;5031091;28;20059;-72
2022/05/04 11:09:42;;;;;;;5.03;1.40;;;20.10;99.90;;;;;;5027896;28;20063;-72
2022/05/04 11:12:10;;;;;;;;;;;20.10;99.90;;;;;;5030988;28;20033;-73
2022/05/04 11:14:38;;;;;;;4.10;1.30;;;20.10;99.90;;;;;;5030707;28;19920;-73
2022/05/04 11:17:13;;;;;;;6.55;1.90;;;20.00;99.90;;;;;;5032030;28;20504;-72
2022/05/04 11:19:45;;;;;;;3.85;1.40;;;20.00;99.90;;;;;;5015127;28;20117;-71
2022/05/04 11:22:14;;;;;;;4.63;1.40;;;20.00;99.90;;;;;;5034299;28;20059;-72
2022/05/04 11:24:43;;;;;;;3.47;1.25;;;20.00;99.90;;;;;;5030595;28;20030;-72
2022/05/04 11:27:15;;;;;;;5.75;1.20;;;20.00;99.90;;;;;;5033279;28;20052;-72
2022/05/04 11:29:44;;;;;;;3.10;1.30;;;20.00;99.90;;;;;;5034393;28;20063;-72
2022/05/04 11:32:19;;;;;;;3.80;1.40;;;19.90;99.90;;;;;;5031039;28;20401;-72
2022/05/04 11:34:47;;;;;;;5.15;1.55;;;19.90;99.90;;;;;;5024809;28;20029;-72
2022/05/04 11:37:15;;;;;;;5.93;1.27;;;19.90;99.90;;;;;;5034240;28;20038;-71
2022/05/04 11:39:42;;;;;;;3.00;1.10;;;19.90;99.90;;;;;;5025315;28;20061;-71
2022/05/04 11:42:10;;;;;;;4.55;1.23;;;19.90;99.90;;;;;;5032817;28;20104;-71
2022/05/04 11:44:41;;;;;;;10.10;2.38;;;19.80;99.90;;;;;;5025626;28;20065;-71
2022/05/04 11:47:08;;;;;;;2.85;1.15;;;19.80;99.90;;;;;;5027000;28;20022;-68
2022/05/04 11:49:36;;;;;;;7.35;1.33;;;19.70;99.90;;;;;;5020175;28;20378;-68
2022/05/04 11:52:05;;;;;;;4.15;1.20;;;19.60;99.90;;;;;;5028753;28;20064;-68
2022/05/04 11:54:33;;;;;;;5.90;1.35;;;19.70;99.90;;;;;;5022911;28;20069;-68
2022/05/04 11:57:00;;;;;;;4.03;1.08;;;19.70;99.90;;;;;;5020015;28;20503;-66
2022/05/04 11:59:33;;;;;;;2.33;1.15;;;19.70;99.90;;;;;;5027271;28;20389;-68
2022/05/04 12:02:02;;;;;;;5.60;1.73;;;19.70;99.90;;;;;;5023744;28;20036;-68
2022/05/04 12:04:29;;;;;;;6.60;1.35;;;19.60;99.90;;;;;;5025648;28;20034;-68
2022/05/04 12:07:00;;;;;;;7.32;1.10;;;19.70;99.90;;;;;;5025130;28;20058;-67
2022/05/04 12:09:27;;;;;;;5.28;1.58;;;19.70;99.90;;;;;;5026063;28;20496;-67
2022/05/04 12:11:55;;;;;;;4.25;0.93;;;19.70;99.90;;;;;;5022227;28;20029;-68
2022/05/04 12:14:22;;;;;;;3.20;0.95;;;19.80;99.90;;;;;;5016398;28;20371;-67
2022/05/04 12:16:50;;;;;;;5.63;1.05;;;19.80;99.90;;;;;;5023731;28;20029;-68
2022/05/04 12:19:19;;;;;;;3.22;0.85;;;19.80;99.90;;;;;;5024376;28;20110;-67
2022/05/04 12:21:47;;;;;;;3.55;0.88;;;19.80;99.90;;;;;;5022264;28;20017;-67
2022/05/04 12:24:14;;;;;;;3.25;0.98;;;19.80;99.90;;;;;;5028889;28;20416;-67
2022/05/04 12:26:42;;;;;;;7.55;0.80;;;19.80;99.90;;;;;;5021739;28;20075;-68
2022/05/04 12:34:44;;;;;;;3.03;0.70;;;19.90;99.90;;;;;;5020766;28;20087;-68
2022/05/04 12:37:12;;;;;;;5.18;0.70;;;19.90;99.90;;;;;;5030697;28;20025;-68
2022/05/04 12:39:43;;;;;;;3.65;1.33;;;20.00;99.90;;;;;;5025812;28;20029;-67
2022/05/04 12:42:13;;;;;;;7.15;1.10;;;20.00;99.90;;;;;;5021639;28;20010;-68
2022/05/04 12:44:50;;;;;;;3.25;0.70;;;20.00;99.90;;;;;;5028922;28;20433;-68
2022/05/04 12:47:17;;;;;;;3.20;0.73;;;20.10;99.90;;;;;;5024181;28;20067;-68
2022/05/04 12:49:47;;;;;;;3.45;1.63;;;20.10;99.90;;;;;;5024282;28;20061;-68
2022/05/04 12:52:15;;;;;;;2.72;0.75;;;20.10;99.90;;;;;;5019329;28;20053;-68
2022/05/04 12:54:43;;;;;;;3.75;0.80;;;20.20;99.90;;;;;;5026654;28;20030;-68
2022/05/04 12:57:11;;;;;;;7.68;0.68;;;20.20;99.90;;;;;;5022866;28;20393;-67
2022/05/04 12:59:39;;;;;;;3.95;0.52;;;20.30;99.90;;;;;;5023043;28;20025;-67
2022/05/04 13:02:07;;;;;;;5.90;1.25;;;20.30;99.90;;;;;;5028748;28;20029;-67
2022/05/04 13:04:34;;;;;;;3.05;0.52;;;20.30;99.90;;;;;;5026453;28;20410;-67
2022/05/04 13:07:01;;;;;;;5.15;0.70;;;20.30;99.90;;;;;;5023482;28;20574;-68
2022/05/04 13:09:29;;;;;;;3.40;0.88;;;20.20;99.90;;;;;;5027224;28;20029;-68
2022/05/04 13:11:56;;;;;;;4.32;0.65;;;20.20;99.90;;;;;;5020625;28;20026;-68
2022/05/04 13:14:23;;;;;;;5.20;0.73;;;20.20;99.90;;;;;;5022371;28;20440;-68
2022/05/04 13:16:51;;;;;;;6.47;0.70;;;20.20;99.90;;;;;;5029832;28;20021;-68
2022/05/04 13:19:18;;;;;;;3.33;0.70;;;20.20;99.90;;;;;;5018998;28;20025;-67
2022/05/04 13:21:46;;;;;;;3.80;0.60;;;20.20;99.90;;;;;;5026547;28;20049;-67
2022/05/04 13:24:13;;;;;;;5.28;1.23;;;20.20;99.90;;;;;;5027884;28;20588;-67
2022/05/04 13:26:41;;;;;;;2.00;0.70;;;20.20;99.90;;;;;;5023915;28;20470;-67
2022/05/04 13:29:09;;;;;;;3.78;0.65;;;20.20;99.90;;;;;;5032483;28;20037;-68
2022/05/04 13:31:37;;;;;;;3.40;1.13;;;20.20;99.90;;;;;;5025684;28;20021;-68
2022/05/04 13:34:04;;;;;;;3.17;0.63;;;20.10;99.90;;;;;;5027267;28;20080;-67
2022/05/04 13:36:31;;;;;;;3.05;0.65;;;20.10;99.90;;;;;;5027090;28;20405;-67
2022/05/04 13:38:59;;;;;;;6.45;1.48;;;20.10;99.90;;;;;;5022312;28;20485;-68
2022/05/04 13:41:27;;;;;;;2.53;0.88;;;20.10;99.90;;;;;;5027929;28;20033;-67